AirNav   Air Wisconsin Up To $57,000 Bonus
 
 1054 users online  

98MI L & L Heliport
Huron Township, Michigan, USA

GOING TO HURON TOWNSHIP?


FAA INFORMATION EFFECTIVE 07 NOVEMBER 2019

Location

FAA Identifier: 98MI
Lat/Long: 42-09-48.0000N 083-20-43.0000W
42-09.800000N 083-20.716667W
42.1633333,-83.3452778
(estimated)
Elevation: 630 ft. / 192 m (estimated)
From city: 2 miles E of HURON TOWNSHIP, MI
Time zone: UTC -5 (UTC -4 during Daylight Saving Time)
Zip code: 48164

Heliport Operations

Heliport use: Private use. Permission required prior to landing
Activation date: 03/2007
Control tower: no
ARTCC: CLEVELAND CENTER
FSS: LANSING FLIGHT SERVICE STATION
Attendance: UNATNDD
Wind indicator: yes
Segmented circle: no

Heliport Communications

WX ASOS at DTW (3 nm N): PHONE 734-955-5015
WX AWOS-3 at ONZ (9 nm SE): 119.675 (734-692-9686)
WX ASOS at YIP (9 nm NW): PHONE 734-961-6843
WX AWOS-3 at TTF (14 nm S): 119.075 (734-384-0259)
WX ASOS at ARB (18 nm W): PHONE 734-668-7173

Nearby radio navigation aids

VOR radial/distance  VOR name  Freq  Var
DXOr168/3.1DETROIT VOR/DME113.4006W
CRLr039/8.5CARLETON VOR/DME115.7003W
SVMr146/18.4SALEM VORTAC114.3003W
YQGr263/23.5WINDSOR VOR/DME113.8006W

 
NDB name  Hdg/Dist  Freq  Var  ID
GROSSE ILE301/9.341907WRYS .-. -.-- ...
TECUMSEH078/25.323906WTCU - -.-. ..-
ADRIAN068/37.127806WADG .- -.. --.

Heliport Services

Runway Information

Helipad H1

Dimensions: 30 x 30 ft. / 9 x 9 m
Surface: concrete
Traffic pattern: leftleft

Heliport Ownership and Management from official FAA records

Ownership: Privately-owned
Owner: LARRY FRANZEL
19360 MERRIMAN RD.
ROMULUS, MI 48174
Phone 734-753-4445
Manager: LARRY FRANZEL
19360 MERRIMAN RD.
ROMULUS, MI 48174
Phone 734-753-4445

Heliport Operational Statistics

Aircraft based on the field: 1
Helicopters: 1
    

Additional Remarks

FOR CD CTC DETROIT APCH AT 800-499-8181.

Instrument Procedures

There are no published instrument procedures at 98MI.

Some nearby airports with instrument procedures:

KDTW - Detroit Metropolitan Wayne County Airport (3 nm N)
KONZ - Grosse Ile Municipal Airport (9 nm SE)
KYIP - Willow Run Airport (9 nm NW)
1D2 - Canton-Plymouth-Mettetal Airport (12 nm NW)
KTTF - Custer Airport (14 nm S)
KARB - Ann Arbor Municipal Airport (18 nm W)
 
Loc | Ops | Rwys | IFR | FBO | Links
Com | Nav | Svcs | Stats | Notes
Area around 98MI (L & L Heliport)
 
Road maps at: MapQuest Bing Google
 
Aerial photo
No photo
 
Sectional chart

 
Airport distance calculator
Flying to L & L Heliport? Find the distance to fly.

From to 98MI

Sunrise and sunset
Times for 21-Nov-2019
 Local
(UTC-5)
 Zulu
(UTC)
Morning civil twilight07:0112:01
Sunrise07:3212:32
Sunset17:0722:07
Evening civil twilight17:3722:37

Current date and time
Zulu (UTC)  21-Nov-2019 23:55:41
Local (UTC-5)  21-Nov-2019 18:55:41
 
METAR
KDTW 
4nm N 
212341Z 22018KT 4SM -RA BR OVC009 11/09 A2971 RMK AO2 PK WND 23030/2302 RAB01 P0001 T01110094 $
KYIP 
9nm NW 
212253Z 21018G26KT 6SM -RA BR OVC007 12/09 A2970 RMK AO2 PK WND 22026/2250 RAB18 SLP058 P0000 T01170094
KONZ 
9nm SE 
212335Z AUTO 21010G15KT 5SM BR OVC011 08/07 A2972 RMK AO2 T00800071
KTTF 
14nm S 
212335Z AUTO 23015G23KT 5SM BR OVC011 12/10 A2972 RMK AO2 T01150095
KARB 
18nm W 
734-668-7173
212253Z 23013G20KT 4SM BR OVC007 11/09 A2969 RMK AO2 RAB20E31 CIG 005V011 SLP058 P0000 T01060089
CYQG 
18nm E 
212332Z AUTO 21017G24KT 4SM -RA BR OVC013 10/09 A2970 RMK SLP064
TAF
KDTW 
4nm N 
212043Z 2121/2224 20018G27KT 5SM -SHRA BKN012 OVC020 FM212200 22020G30KT 5SM -DZ OVC008 FM220300 28018G28KT P6SM OVC020 FM220800 30014G24KT P6SM OVC028 FM221400 31012G18KT P6SM BKN035
KYIP 
9nm NW 
212044Z 2121/2218 20018G30KT 6SM -SHRA BKN012 OVC020 FM212200 22021G32KT 5SM -DZ OVC008 FM220300 28018G28KT P6SM OVC020 FM220800 30014G24KT P6SM OVC028 FM221400 31012G18KT P6SM BKN035
CYQG 
18nm E 
211940Z 2119/2218 17012G22KT P6SM -RA SCT015 OVC090 TEMPO 2119/2121 5SM -SHRA BR BKN015 OVC090 FM212100 20015G25KT 6SM -RA BR FEW012 OVC025 TEMPO 2121/2124 5SM -SHRA BR OVC012 FM220000 20015G25KT 4SM -RA -DZ BR SCT008 OVC012 FM220400 24018G28KT P6SM -SHRA OVC015 FM220800 30015G25KT P6SM -SHRA OVC020 FM221200 30012G22KT P6SM BKN025 RMK FCST BASED ON AUTO OBS. NXT FCST BY 220000Z
NOTAMs
Click for the latest NOTAMs
NOTAMs are issued by the DoD/FAA and will open in a separate window not controlled by AirNav.

 

 
 

Would you like to see your business listed on this page?

 If your business provides an interesting product or service to pilots, flight crews, aircraft, or users of the L & L Heliport, you should consider listing it here.  To start the listing process, click on the button below
 
Add a business
 

Other Pages about L & L Heliport

Update a link
 
Copyright © AirNav, LLC. All rights reserved. Privacy Policy  Contact